Nearby METAR Reports

 

KISP - Islip, New York, USA
Distance from station: SW 4mi, 6km
Updated: Sun, 10/21/2018 1:56 pm EDT
Mostly cloudy
Mostly cloudy
 Wind from NW
Wind: NW 24 mph , 39 km/h, Gust: 35 mph , 56 km/h
Temperature: 50°F , 10°C
Wind Chill: 43°F , 6°C
Dew Point: 28°F , -2°C
Humidity: 43%
Barometer: 29.90 inHg , 1012.5 hPa
Clouds: Mostly cloudy
Visibility: 10 miles , 16 km
Cloud details: Mostly cloudy 4500 ft
2018/10/21 17:56 KISP 211756Z 31021G30KT 10SM BKN045 10/M02 A2990 RMK AO2 PK WND 34034/1742 SLP127 60000 T01001022 10100 20083 53009
KHWV - Shirley, New York, USA
Distance from station: E 10mi, 16km
Updated: Sun, 10/21/2018 1:56 pm EDT
Mostly cloudy
Mostly cloudy
 Wind from NW
Wind: NW 20 mph , 31 km/h, Gust: 31 mph , 50 km/h
Temperature: 48°F , 9°C
Wind Chill: 41°F , 5°C
Dew Point: 28°F , -2°C
Humidity: 46%
Barometer: 29.90 inHg , 1012.5 hPa
Clouds: Mostly cloudy
Visibility: 10 miles , 16 km
Cloud details: Mostly cloudy 4300 ft
2018/10/21 17:56 KHWV 211756Z AUTO 32017G27KT 10SM BKN043 09/M02 A2990 RMK AO2 PK WND 32034/1657 SLP125 60002 T00891022 10094 20078 51008
 
KFRG - Farmingdale, New York, USA
Distance from station: WSW 20mi, 33km
Updated: Sun, 10/21/2018 1:53 pm EDT
Few Clouds
Few Clouds
 Wind from NNW
Wind: NNW 23 mph , 37 km/h, Gust: 40 mph , 65 km/h
Temperature: 48°F , 9°C
Wind Chill: 40°F , 4°C
Dew Point: 25°F , -4°C
Humidity: 40%
Barometer: 29.92 inHg , 1013.2 hPa
Clouds: Few Clouds
Visibility: 10 miles , 16 km
Cloud details: Few Clouds 4800 ft
2018/10/21 17:53 KFRG 211753Z 33020G35KT 10SM FEW048 09/M04 A2992 RMK AO2 PK WND 35035/1747 SLP133 T00891044 10094 20078 51008
KBDR - Bridgeport, Connecticut, USA
Distance from station: N 23mi, 37km
Updated: Sun, 10/21/2018 1:52 pm EDT
Overcast
Overcast
 Wind from NW
Wind: NW 15 mph , 24 km/h, Gust: 30 mph , 48 km/h
Temperature: 48°F , 9°C
Wind Chill: 42°F , 6°C
Dew Point: 27°F , -3°C
Humidity: 43%
Barometer: 29.91 inHg , 1012.9 hPa
Clouds: Overcast
Visibility: 10 miles , 16 km
Cloud details: Overcast 5000 ft
2018/10/21 17:52 KBDR 211752Z 32013G26KT 10SM OVC050 09/M03 A2991 RMK AO2 PK WND 35028/1735 SLP128 T00891033 10089 20072 50010
 
KFOK - Westhampton Beac, New York, USA
Distance from station: E 23mi, 37km
Updated: Sun, 10/21/2018 1:53 pm EDT
Partly cloudy
Partly cloudy
 Wind from NNW
Wind: NNW 28 mph , 44 km/h, Gust: 38 mph , 61 km/h
Temperature: 46°F , 8°C
Wind Chill: 37°F , 3°C
Dew Point: 27°F , -3°C
Humidity: 46%
Clouds: Partly cloudy
Visibility: 10 miles , 16 km
Cloud details: Partly cloudy 4400 ft
2018/10/21 17:53 KFOK 211753Z 33024G33KT 10SM SCT044 08/M03 RMK AO2 PK WND 34035/1736 SLPNO 60003 T00831033 10100 20072 $
KHVN - New Haven/Tweed, Connecticut, USA
Distance from station: NNE 31mi, 50km
Updated: Sun, 10/21/2018 1:53 pm EDT
Partly cloudy
Partly cloudy
 Wind from NW
Wind: NW 13 mph , 20 km/h, Gust: 29 mph , 46 km/h
Temperature: 48°F , 9°C
Wind Chill: 43°F , 6°C
Dew Point: 27°F , -3°C
Humidity: 43%
Barometer: 29.90 inHg , 1012.5 hPa
Clouds: Partly cloudy
Visibility: 10 miles , 16 km
Cloud details: Partly cloudy 5500 ft
2018/10/21 17:53 KHVN 211753Z 32011G25KT 10SM SCT055 09/M03 A2990 RMK AO2 PK WND 32030/1724 SLP124 T00891033 10094 20078 51006
 
KHPN - White Plains, New York, USA
Distance from station: WNW 37mi, 60km
Updated: Sun, 10/21/2018 1:56 pm EDT
Partly cloudy
Partly cloudy
 Wind from NNW
Wind: NNW 29 mph , 46 km/h, Gust: 37 mph , 59 km/h
Temperature: 46°F , 8°C
Wind Chill: 37°F , 3°C
Dew Point: 27°F , -3°C
Humidity: 46%
Barometer: 29.91 inHg , 1012.9 hPa
Clouds: Partly cloudy
Visibility: 10 miles , 16 km
Cloud details: Partly cloudy 5000 ft
2018/10/21 17:56 KHPN 211756Z 33025G32KT 10SM SCT050 08/M03 A2991 RMK AO2 PK WND 32033/1736 SLP131 T00781033 10083 20061 50002
KJFK - Nyc/Jfk Arpt, New York, USA
Distance from station: WSW 40mi, 64km
Updated: Sun, 10/21/2018 1:51 pm EDT
Mostly cloudy
Mostly cloudy
 Wind from NW
Wind: NW 25 mph , 41 km/h, Gust: 37 mph , 59 km/h
Temperature: 48°F , 9°C
Wind Chill: 40°F , 4°C
Dew Point: 27°F , -3°C
Humidity: 43%
Barometer: 29.96 inHg , 1014.6 hPa
Clouds: Mostly cloudy
Visibility: 10 miles , 16 km
Cloud details: Mostly cloudy 5000 ft
2018/10/21 17:51 KJFK 211751Z 31022G32KT 10SM BKN050 09/M03 A2996 RMK AO2 PK WND 32034/1734 SLP144 T00941028 10094 20078 51007 VISNO W $
 
KDXR - Danbury, Connecticut, USA
Distance from station: NNW 42mi, 68km
Updated: Sun, 10/21/2018 1:53 pm EDT
Mostly cloudy
Mostly cloudy
 Wind from NNW
Wind: NNW 12 mph , 19 km/h, Gust: 29 mph , 46 km/h
Temperature: 45°F , 7°C
Wind Chill: 39°F , 4°C
Dew Point: 25°F , -4°C
Humidity: 46%
Barometer: 29.93 inHg , 1013.5 hPa
Clouds: Mostly cloudy
Visibility: 10 miles , 16 km
Cloud details: Mostly cloudy 5000 ft
2018/10/21 17:53 KDXR 211753Z 34010G25KT 300V010 10SM BKN050 07/M04 A2993 RMK AO2 SLP137 T00671039 10072 20050 51004
KHTO - East Hampton, New York, USA
Distance from station: E 43mi, 69km
Updated: Sun, 10/21/2018 2:35 pm EDT
Partly cloudy
Partly cloudy
 Wind from NW
Wind: NW 16 mph , 26 km/h, Gust: 31 mph , 50 km/h
Temperature: 46°F , 8°C
Wind Chill: 39°F , 4°C
Dew Point: 28°F , -2°C
Humidity: 50%
Barometer: 29.87 inHg , 1011.5 hPa
Clouds: Partly cloudy
Visibility: 10 miles , 16 km
Cloud details: Partly cloudy 4400 ft
2018/10/21 18:35 KHTO 211835Z AUTO 31014G27KT 10SM SCT044 08/M02 A2987 RMK AO2 T00821022
 
KOXC - Oxford/Waterbury, Connecticut, USA
Distance from station: N 43mi, 70km
Updated: Sun, 10/21/2018 1:51 pm EDT
Mostly cloudy
Mostly cloudy
 Wind from NW
Wind: NW 14 mph , 22 km/h, Gust: 25 mph , 41 km/h
Temperature: 43°F , 6°C
Wind Chill: 36°F , 2°C
Dew Point: 23°F , -5°C
Humidity: 46%
Barometer: 29.89 inHg , 1012.2 hPa
Clouds: Mostly cloudy
Cloud details: Mostly cloudy 4800 ft
2018/10/21 17:51 KOXC 211751Z 32012G22KT BKN048 06/M05 A2989 RMK AO2 PK WND 33029/1655 SLP138 T00611050 10061 20039 51005 $
KLGA - Nyc/La Guardia, New York, USA
Distance from station: W 44mi, 70km
Updated: Sun, 10/21/2018 1:51 pm EDT
Mostly cloudy
Mostly cloudy
 Wind from NW
Wind: NW 20 mph , 31 km/h, Gust: 35 mph , 56 km/h
Temperature: 48°F , 9°C
Wind Chill: 41°F , 5°C
Dew Point: 28°F , -2°C
Humidity: 46%
Barometer: 29.95 inHg , 1014.2 hPa
Clouds: Mostly cloudy
Visibility: 10 miles , 16 km
Cloud details: Mostly cloudy 5000 ft
2018/10/21 17:51 KLGA 211751Z 31017G30KT 10SM BKN050 09/M02 A2995 RMK AO2 PK WND 31032/1719 SLP142 T00941022 10100 20083 51006
 
KSNC - Chester, Connecticut, USA
Distance from station: NE 47mi, 76km
Updated: Sun, 10/21/2018 2:35 pm EDT
Clear
Clear
 Wind from NNW
Wind: NNW 24 mph , 39 km/h, Gust: 37 mph , 59 km/h
Temperature: 46°F , 8°C
Wind Chill: 38°F , 3°C
Dew Point: 21°F , -6°C
Humidity: 37%
Barometer: 29.87 inHg , 1011.5 hPa
Clouds: Clear
Visibility: 10 miles , 16 km
2018/10/21 18:35 KSNC 211835Z AUTO 33021G32KT 10SM CLR 08/M06 A2987 RMK AO2
KMMK - Meriden, Connecticut, USA
Distance from station: NNE 48mi, 77km
Updated: Sun, 10/21/2018 1:53 pm EDT
Few Clouds
Few Clouds
 Wind from NNW
Wind: NNW 12 mph , 19 km/h, Gust: 35 mph , 56 km/h
Temperature: 46°F , 8°C
Wind Chill: 40°F , 4°C
Dew Point: 21°F , -6°C
Humidity: 37%
Barometer: 29.90 inHg , 1012.5 hPa
Clouds: Few Clouds
Visibility: 10 miles , 16 km
Cloud details: Few Clouds 5000 ft
2018/10/21 17:53 KMMK 211753Z AUTO 33010G30KT 10SM FEW050 08/M06 A2990 RMK AO2 PK WND 35030/1746 SLP126 T00831056 10083 20061 53006 $
 
KNYC - Nyc/Central Park, New York, USA
Distance from station: W 48mi, 77km
Updated: Sun, 10/21/2018 1:51 pm EDT
Mostly cloudy
Mostly cloudy
 
Temperature: 46°F , 8°C
Dew Point: 25°F , -4°C
Humidity: 43%
Barometer: 29.98 inHg , 1015.2 hPa
Clouds: Mostly cloudy
Visibility: 10 miles , 16 km
Cloud details: Mostly cloudy 5500 ft
2018/10/21 17:51 KNYC 211751Z AUTO 10SM BKN055 08/M04 A2998 RMK AO2 SLP144 T00781039 10089 20072 51003 $